^^
Meteosantamaria
 
Giornaliero Rapporto per Dicembre 12, 2017 Unità:  Metrico    Imperiale   Entrambi
« Precedente
Prossimo »
Giornaliero Settimanale Mensile Annuale Personalizzato
  Attuale: Max: Min: Media:
Temperatura: 13.2 °C 13.7 °C 13.1 °C 13.4 °C
Punto di rugiada: 9.8 °C 9.8 °C 8.7 °C 9.3 °C
Umidità;: 80% 80% 73% 76%
Vel.Vento: 40.7km/h 60.0km/h 20.4km/h 43.8km/h
Raffiche: 40.7km/h 60.0km/h - -
DirezioneSW - - SSW
Pressione: 1007.0 hPa 1007.0 hPa 1006.0 hPa -
Pioggia: 0.0 mm      
Historical Graphs
 
 
Dati di Dicembre 12, 2017
Ora Temperatura Punto di rugiada Pressione Direzione Vento Raffiche Umidità Intensità pioggia Condizioni del cielo
00:04 13.4 °C 8.8 °C 1006.0 hPa SW 55.5 km/h 55.5 km/h 74% 0.0 mm RA
00:09 13.4 °C 8.8 °C 1006.0 hPa SW 50.0 km/h 50.0 km/h 74% 0.0 mm RA
00:14 13.4 °C 8.8 °C 1006.0 hPa WSW 46.3 km/h 46.3 km/h 74% 0.0 mm BKN
00:24 13.3 °C 8.8 °C 1006.0 hPa SW 48.1 km/h 48.1 km/h 74% 0.0 mm BKN
00:29 13.4 °C 8.7 °C 1006.0 hPa SW 35.2 km/h 35.2 km/h 73% 0.0 mm BKN
00:34 13.4 °C 8.7 °C 1006.0 hPa WSW 44.4 km/h 44.4 km/h 73% 0.0 mm BKN
00:39 13.4 °C 8.7 °C 1006.0 hPa South 60.0 km/h 60.0 km/h 73% 0.0 mm BKN
00:44 13.5 °C 8.8 °C 1006.0 hPa South 46.7 km/h 46.7 km/h 73% 0.0 mm BKN
00:49 13.5 °C 8.8 °C 1006.0 hPa SW 37.0 km/h 37.0 km/h 73% 0.0 mm BKN
00:54 13.5 °C 8.8 °C 1006.0 hPa South 55.5 km/h 55.5 km/h 73% 0.0 mm BKN
00:59 13.6 °C 8.8 °C 1006.0 hPa SE 51.8 km/h 51.8 km/h 73% 0.0 mm BKN
01:09 13.5 °C 8.8 °C 1006.0 hPa WSW 37.0 km/h 37.0 km/h 73% 0.0 mm BKN
01:24 13.5 °C 8.9 °C 1006.0 hPa SSW 46.3 km/h 46.3 km/h 74% 0.0 mm BKN
01:29 13.4 °C 9.1 °C 1006.0 hPa SE 43.1 km/h 43.1 km/h 75% 0.0 mm BKN
01:34 13.4 °C 9.1 °C 1006.0 hPa SW 55.3 km/h 55.3 km/h 75% 0.0 mm BKN
01:39 13.4 °C 9.1 °C 1006.0 hPa SE 59.2 km/h 59.2 km/h 75% 0.0 mm BKN
01:44 13.5 °C 9.2 °C 1006.0 hPa SW 42.6 km/h 42.6 km/h 75% 0.0 mm BKN
01:49 13.5 °C 9.2 °C 1006.0 hPa West 37.5 km/h 37.5 km/h 75% 0.0 mm BKN
01:54 13.5 °C 9.2 °C 1006.0 hPa SSW 44.9 km/h 44.9 km/h 75% 0.0 mm BKN
02:05 13.5 °C 9.2 °C 1006.0 hPa SSW 25.7 km/h 45.1 km/h 75% 0.0 mm BKN
02:10 13.4 °C 9.3 °C 1006.0 hPa SSW 29.0 km/h 45.1 km/h 76% 0.0 mm BKN
02:13 13.4 °C 9.1 °C 1006.0 hPa South 37.0 km/h 37.0 km/h 75% 0.0 mm BKN
02:23 13.4 °C 9.1 °C 1006.0 hPa South 45.4 km/h 45.4 km/h 75% 0.0 mm BKN
02:28 13.5 °C 9.2 °C 1006.0 hPa SW 47.5 km/h 47.5 km/h 75% 0.0 mm BKN
02:33 13.5 °C 9.2 °C 1006.0 hPa South 33.3 km/h 33.3 km/h 75% 0.0 mm BKN
02:38 13.5 °C 9.2 °C 1006.0 hPa SSW 51.8 km/h 51.8 km/h 75% 0.0 mm BKN
02:43 13.6 °C 9.2 °C 1006.0 hPa SW 49.2 km/h 49.2 km/h 75% 0.0 mm BKN
02:48 13.6 °C 9.2 °C 1006.0 hPa SW 44.4 km/h 44.4 km/h 75% 0.0 mm BKN
02:53 13.6 °C 9.2 °C 1006.0 hPa SW 48.4 km/h 48.4 km/h 75% 0.0 mm BKN
03:03 13.7 °C 9.3 °C 1006.0 hPa SW 57.4 km/h 57.4 km/h 75% 0.0 mm BKN
03:08 13.6 °C 9.2 °C 1006.0 hPa South 55.3 km/h 55.3 km/h 75% 0.0 mm BKN
03:18 13.6 °C 9.2 °C 1006.0 hPa West 36.7 km/h 36.7 km/h 75% 0.0 mm BKN
03:23 13.6 °C 9.2 °C 1006.0 hPa South 25.9 km/h 25.9 km/h 75% 0.0 mm BKN
03:28 13.5 °C 9.3 °C 1006.0 hPa SW 37.0 km/h 37.0 km/h 76% 0.0 mm BKN
03:38 13.5 °C 9.3 °C 1006.0 hPa SSW 43.1 km/h 43.1 km/h 76% 0.0 mm BKN
03:43 13.5 °C 9.3 °C 1006.0 hPa SW 25.9 km/h 25.9 km/h 76% 0.0 mm BKN
03:48 13.6 °C 9.4 °C 1006.0 hPa SW 51.8 km/h 51.8 km/h 76% 0.0 mm BKN
03:53 13.5 °C 9.6 °C 1006.0 hPa SE 35.2 km/h 35.2 km/h 77% 0.0 mm BKN
04:03 13.5 °C 9.6 °C 1006.0 hPa SW 52.1 km/h 52.1 km/h 77% 0.0 mm BKN
04:08 13.4 °C 9.7 °C 1006.0 hPa SW 50.8 km/h 50.8 km/h 78% 0.0 mm BKN
04:13 13.5 °C 9.6 °C 1006.0 hPa SW 33.9 km/h 33.9 km/h 77% 0.0 mm BKN
04:33 13.3 °C 9.7 °C 1006.0 hPa SW 50.4 km/h 50.4 km/h 79% 0.0 mm BKN
04:38 13.3 °C 9.7 °C 1006.0 hPa SW 43.1 km/h 43.1 km/h 79% 0.0 mm BKN
04:43 13.3 °C 9.7 °C 1007.0 hPa WSW 38.9 km/h 38.9 km/h 79% 0.0 mm BKN
04:53 13.2 °C 9.8 °C 1007.0 hPa WSW 46.7 km/h 46.7 km/h 80% 0.0 mm BKN
05:03 13.2 °C 9.8 °C 1007.0 hPa SW 53.7 km/h 53.7 km/h 80% 0.0 mm BKN
05:08 13.2 °C 9.8 °C 1007.0 hPa SE 38.9 km/h 38.9 km/h 80% 0.0 mm BKN
05:18 13.2 °C 9.8 °C 1007.0 hPa SW 20.4 km/h 20.4 km/h 80% 0.0 mm BKN
05:23 13.2 °C 9.8 °C 1007.0 hPa SSW 48.9 km/h 48.9 km/h 80% 0.0 mm BKN
05:28 13.2 °C 9.8 °C 1007.0 hPa SW 40.7 km/h 40.7 km/h 80% 0.0 mm BKN
05:34 13.1 °C 9.7 °C 1007.0 hPa South 41.5 km/h 41.5 km/h 80% 0.0 mm BKN
05:39 13.2 °C 9.8 °C 1007.0 hPa SW 40.7 km/h 40.7 km/h 80% 0.0 mm BKN
Meteosantamaria, Umbria, ITALIA
per gentile concessione di Weather Underground - 2.5 mb